sensor_id;sensor_type;location;lat;lon;timestamp;pressure;altitude;pressure_sealevel;temperature;humidity
61484;BME280;47349;55.640;37.692;2023-07-28T01:14:59;97717.38;;;21.05;100.00
61484;BME280;47349;55.640;37.692;2023-07-28T01:17:30;97680.09;;;20.82;100.00
61484;BME280;47349;55.640;37.692;2023-07-28T01:20:03;97739.28;;;21.19;100.00
61484;BME280;47349;55.640;37.692;2023-07-28T01:26:06;97696.59;;;20.90;100.00
61484;BME280;47349;55.640;37.692;2023-07-28T01:28:39;97680.88;;;20.82;100.00
61484;BME280;47349;55.640;37.692;2023-07-28T01:31:08;97695.13;;;20.98;100.00
61484;BME280;47349;55.640;37.692;2023-07-28T01:43:17;97716.38;;;21.20;100.00
61484;BME280;47349;55.640;37.692;2023-07-28T01:46:00;97676.94;;;20.93;100.00
61484;BME280;47349;55.640;37.692;2023-07-28T01:48:31;97649.47;;;20.71;100.00
61484;BME280;47349;55.640;37.692;2023-07-28T01:51:03;97652.56;;;20.83;100.00
61484;BME280;47349;55.640;37.692;2023-07-28T01:53:43;97680.34;;;21.04;100.00
61484;BME280;47349;55.640;37.692;2023-07-28T01:56:14;97697.75;;;21.08;100.00
61484;BME280;47349;55.640;37.692;2023-07-28T01:58:58;97656.38;;;20.82;100.00
61484;BME280;47349;55.640;37.692;2023-07-28T02:01:34;97673.13;;;20.94;100.00
61484;BME280;47349;55.640;37.692;2023-07-28T02:04:07;97656.06;;;20.89;100.00
61484;BME280;47349;55.640;37.692;2023-07-28T02:06:38;97672.84;;;21.15;100.00
61484;BME280;47349;55.640;37.692;2023-07-28T02:09:08;97665.94;;;21.03;100.00
61484;BME280;47349;55.640;37.692;2023-07-28T02:11:40;97697.06;;;21.16;100.00
61484;BME280;47349;55.640;37.692;2023-07-28T02:14:20;97713.72;;;21.15;100.00
61484;BME280;47349;55.640;37.692;2023-07-28T02:16:54;97682.53;;;21.02;100.00
61484;BME280;47349;55.640;37.692;2023-07-28T02:19:47;97661.91;;;20.77;100.00
61484;BME280;47349;55.640;37.692;2023-07-28T02:35:01;97722.94;;;21.19;100.00
61484;BME280;47349;55.640;37.692;2023-07-28T03:46:51;97947.09;;;20.95;100.00
61484;BME280;47349;55.640;37.692;2023-07-28T03:49:23;97940.31;;;20.53;100.00
61484;BME280;47349;55.640;37.692;2023-07-28T03:52:21;97960.59;;;20.32;100.00
61484;BME280;47349;55.640;37.692;2023-07-28T09:00:31;97870.38;;;24.52;100.00
61484;BME280;47349;55.640;37.692;2023-07-28T09:03:30;97810.69;;;24.04;100.00
61484;BME280;47349;55.640;37.692;2023-07-28T09:06:55;97809.84;;;23.81;99.64
61484;BME280;47349;55.640;37.692;2023-07-28T09:10:00;97878.38;;;24.13;100.00
61484;BME280;47349;55.640;37.692;2023-07-28T09:12:49;97831.84;;;23.63;100.00
61484;BME280;47349;55.640;37.692;2023-07-28T09:19:24;97896.09;;;23.79;100.00
61484;BME280;47349;55.640;37.692;2023-07-28T09:22:08;97874.41;;;23.41;100.00
61484;BME280;47349;55.640;37.692;2023-07-28T09:24:41;97867.50;;;23.16;100.00
61484;BME280;47349;55.640;37.692;2023-07-28T09:30:58;97902.19;;;23.16;100.00
61484;BME280;47349;55.640;37.692;2023-07-28T10:42:46;97858.53;;;22.31;100.00
61484;BME280;47349;55.640;37.692;2023-07-28T10:45:31;97828.28;;;22.28;100.00
61484;BME280;47349;55.640;37.692;2023-07-28T10:48:14;97842.22;;;22.45;100.00
61484;BME280;47349;55.640;37.692;2023-07-28T10:51:24;97868.41;;;22.79;100.00
61484;BME280;47349;55.640;37.692;2023-07-28T10:54:43;97842.66;;;22.66;100.00
61484;BME280;47349;55.640;37.692;2023-07-28T10:58:01;97837.25;;;22.80;100.00
61484;BME280;47349;55.640;37.692;2023-07-28T11:01:21;97795.78;;;22.78;100.00
61484;BME280;47349;55.640;37.692;2023-07-28T11:04:49;97792.97;;;23.11;100.00
61484;BME280;47349;55.640;37.692;2023-07-28T11:08:29;97807.09;;;22.85;100.00
61484;BME280;47349;55.640;37.692;2023-07-28T11:11:43;97866.47;;;23.12;100.00
61484;BME280;47349;55.640;37.692;2023-07-28T11:15:10;97813.03;;;22.92;100.00
61484;BME280;47349;55.640;37.692;2023-07-28T11:19:08;97868.59;;;22.69;100.00
61484;BME280;47349;55.640;37.692;2023-07-28T11:24:09;97924.00;;;22.69;100.00
61484;BME280;47349;55.640;37.692;2023-07-28T11:28:02;97922.34;;;22.36;100.00
61484;BME280;47349;55.640;37.692;2023-07-28T11:31:08;97902.88;;;21.99;100.00
61484;BME280;47349;55.640;37.692;2023-07-28T11:34:21;97941.25;;;22.08;100.00
61484;BME280;47349;55.640;37.692;2023-07-28T11:38:20;97902.59;;;22.01;100.00
61484;BME280;47349;55.640;37.692;2023-07-28T11:42:53;97931.50;;;22.45;100.00
61484;BME280;47349;55.640;37.692;2023-07-28T11:48:14;97897.69;;;22.22;100.00
61484;BME280;47349;55.640;37.692;2023-07-28T11:53:18;97914.91;;;21.98;100.00
61484;BME280;47349;55.640;37.692;2023-07-28T11:56:46;97918.75;;;21.97;100.00
61484;BME280;47349;55.640;37.692;2023-07-28T12:01:11;97928.19;;;21.86;100.00
61484;BME280;47349;55.640;37.692;2023-07-28T12:04:46;97994.56;;;22.00;100.00
61484;BME280;47349;55.640;37.692;2023-07-28T12:08:10;97975.16;;;21.78;100.00
61484;BME280;47349;55.640;37.692;2023-07-28T12:11:22;98018.94;;;21.92;100.00
61484;BME280;47349;55.640;37.692;2023-07-28T12:14:10;97991.25;;;21.79;100.00
61484;BME280;47349;55.640;37.692;2023-07-28T12:16:54;97972.69;;;21.81;100.00
61484;BME280;47349;55.640;37.692;2023-07-28T12:19:42;97999.66;;;22.07;100.00
61484;BME280;47349;55.640;37.692;2023-07-28T12:22:45;97985.41;;;22.15;100.00
61484;BME280;47349;55.640;37.692;2023-07-28T12:25:39;98024.06;;;22.41;100.00
61484;BME280;47349;55.640;37.692;2023-07-28T12:28:21;97990.25;;;22.18;100.00
61484;BME280;47349;55.640;37.692;2023-07-28T12:30:50;98020.31;;;22.37;100.00
61484;BME280;47349;55.640;37.692;2023-07-28T12:33:33;98000.13;;;22.14;100.00
61484;BME280;47349;55.640;37.692;2023-07-28T12:36:04;97994.16;;;21.88;100.00
61484;BME280;47349;55.640;37.692;2023-07-28T12:38:40;98025.88;;;21.79;100.00
61484;BME280;47349;55.640;37.692;2023-07-28T12:41:13;98024.66;;;21.66;100.00
61484;BME280;47349;55.640;37.692;2023-07-28T12:43:55;98030.25;;;21.51;100.00
61484;BME280;47349;55.640;37.692;2023-07-28T12:46:39;98026.19;;;21.48;100.00
61484;BME280;47349;55.640;37.692;2023-07-28T12:49:25;98035.69;;;21.51;100.00
61484;BME280;47349;55.640;37.692;2023-07-28T12:51:58;98001.88;;;21.23;100.00
61484;BME280;47349;55.640;37.692;2023-07-28T12:54:28;98067.47;;;21.66;100.00
61484;BME280;47349;55.640;37.692;2023-07-28T12:57:11;98011.63;;;21.34;100.00
61484;BME280;47349;55.640;37.692;2023-07-28T12:59:55;98066.69;;;21.26;100.00
61484;BME280;47349;55.640;37.692;2023-07-28T13:02:29;98030.31;;;20.72;100.00
61484;BME280;47349;55.640;37.692;2023-07-28T13:04:56;98082.59;;;20.74;100.00
61484;BME280;47349;55.640;37.692;2023-07-28T13:07:24;98075.06;;;20.46;100.00
61484;BME280;47349;55.640;37.692;2023-07-28T13:10:20;98082.16;;;20.42;100.00
61484;BME280;47349;55.640;37.692;2023-07-28T13:13:16;98074.28;;;20.35;100.00
61484;BME280;47349;55.640;37.692;2023-07-28T13:15:59;98030.91;;;19.99;100.00
61484;BME280;47349;55.640;37.692;2023-07-28T13:18:29;98032.00;;;19.98;100.00
61484;BME280;47349;55.640;37.692;2023-07-28T13:21:10;98010.53;;;19.87;100.00
61484;BME280;47349;55.640;37.692;2023-07-28T13:23:43;98015.47;;;19.80;100.00
61484;BME280;47349;55.640;37.692;2023-07-28T13:26:25;98038.88;;;19.70;100.00
61484;BME280;47349;55.640;37.692;2023-07-28T13:28:53;98029.94;;;19.60;100.00
61484;BME280;47349;55.640;37.692;2023-07-28T13:31:21;98008.75;;;19.36;100.00
61484;BME280;47349;55.640;37.692;2023-07-28T13:33:54;97990.28;;;18.92;100.00
61484;BME280;47349;55.640;37.692;2023-07-28T13:36:44;97986.50;;;18.83;100.00
61484;BME280;47349;55.640;37.692;2023-07-28T13:39:17;97993.53;;;18.94;100.00
61484;BME280;47349;55.640;37.692;2023-07-28T13:41:59;97963.41;;;18.70;100.00
61484;BME280;47349;55.640;37.692;2023-07-28T13:44:27;97978.63;;;18.87;100.00
61484;BME280;47349;55.640;37.692;2023-07-28T13:46:58;97989.19;;;18.83;100.00
61484;BME280;47349;55.640;37.692;2023-07-28T13:49:29;97953.59;;;18.54;100.00
61484;BME280;47349;55.640;37.692;2023-07-28T14:11:36;97898.38;;;17.77;100.00
61484;BME280;47349;55.640;37.692;2023-07-28T17:10:34;98074.78;;;18.28;100.00
61484;BME280;47349;55.640;37.692;2023-07-28T17:13:38;98074.53;;;18.35;100.00
61484;BME280;47349;55.640;37.692;2023-07-28T17:45:46;98136.50;;;18.06;100.00
61484;BME280;47349;55.640;37.692;2023-07-28T17:48:17;98157.13;;;18.12;100.00
61484;BME280;47349;55.640;37.692;2023-07-28T17:50:44;98139.44;;;17.99;100.00
61484;BME280;47349;55.640;37.692;2023-07-28T17:53:12;98137.22;;;17.91;100.00
61484;BME280;47349;55.640;37.692;2023-07-28T17:55:44;98176.06;;;18.07;100.00
61484;BME280;47349;55.640;37.692;2023-07-28T17:58:11;98152.97;;;17.94;100.00
61484;BME280;47349;55.640;37.692;2023-07-28T18:00:41;98171.63;;;17.90;100.00
61484;BME280;47349;55.640;37.692;2023-07-28T18:03:11;98074.22;;;17.36;100.00
61484;BME280;47349;55.640;37.692;2023-07-28T18:05:38;98110.34;;;17.52;100.00
61484;BME280;47349;55.640;37.692;2023-07-28T18:08:09;98142.13;;;17.62;100.00
61484;BME280;47349;55.640;37.692;2023-07-28T18:10:43;98077.06;;;17.25;100.00
61484;BME280;47349;55.640;37.692;2023-07-28T18:13:13;98066.16;;;17.14;100.00
61484;BME280;47349;55.640;37.692;2023-07-28T18:15:41;98077.81;;;17.15;100.00
61484;BME280;47349;55.640;37.692;2023-07-28T18:18:08;98109.94;;;17.33;100.00
61484;BME280;47349;55.640;37.692;2023-07-28T18:20:35;98096.22;;;17.13;100.00
61484;BME280;47349;55.640;37.692;2023-07-28T18:23:03;98114.41;;;17.17;100.00
61484;BME280;47349;55.640;37.692;2023-07-28T18:25:33;98099.94;;;17.07;100.00
61484;BME280;47349;55.640;37.692;2023-07-28T18:31:10;98067.53;;;16.85;100.00
61484;BME280;47349;55.640;37.692;2023-07-28T18:33:38;98090.44;;;16.77;100.00
61484;BME280;47349;55.640;37.692;2023-07-28T18:36:06;98133.84;;;17.14;100.00
61484;BME280;47349;55.640;37.692;2023-07-28T18:38:33;98135.00;;;16.96;100.00
61484;BME280;47349;55.640;37.692;2023-07-28T18:41:00;98105.56;;;16.73;100.00
61484;BME280;47349;55.640;37.692;2023-07-28T18:43:33;98125.22;;;16.90;100.00
61484;BME280;47349;55.640;37.692;2023-07-28T18:46:04;98132.78;;;16.88;100.00
61484;BME280;47349;55.640;37.692;2023-07-28T18:48:32;98139.38;;;16.98;100.00
61484;BME280;47349;55.640;37.692;2023-07-28T18:51:00;98083.53;;;16.64;100.00
61484;BME280;47349;55.640;37.692;2023-07-28T19:55:32;98189.13;;;16.31;100.00
61484;BME280;47349;55.640;37.692;2023-07-28T23:27:06;98202.72;;;14.66;100.00
61484;BME280;47349;55.640;37.692;2023-07-28T23:29:58;98275.03;;;15.21;100.00
61484;BME280;47349;55.640;37.692;2023-07-28T23:37:52;98263.78;;;15.24;100.00
61484;BME280;47349;55.640;37.692;2023-07-28T23:44:29;98262.41;;;15.10;100.00
61484;BME280;47349;55.640;37.692;2023-07-28T23:46:56;98177.28;;;14.62;100.00
61484;BME280;47349;55.640;37.692;2023-07-28T23:49:24;98220.59;;;14.84;100.00
61484;BME280;47349;55.640;37.692;2023-07-28T23:51:51;98233.47;;;14.94;100.00
61484;BME280;47349;55.640;37.692;2023-07-28T23:54:18;98244.00;;;15.07;100.00
61484;BME280;47349;55.640;37.692;2023-07-28T23:57:13;98205.59;;;14.88;100.00
